Time;durP1;ratioP1;P1;durP2;ratioP2;P2;SDS_P1;SDS_P2;PMS_P1;PMS_P2;Temp;Humidity;BMP_temperature;BMP_pressure;BME280_temperature;BME280_humidity;BME280_pressure;Samples;Min_cycle;Max_cycle;Signal;HPM_P1;HPM_P2
2023/03/04 00:01:56;;;;;;;0.00;0.00;;;3.00;99.90;;;;;;5032124;28;20028;-78
2023/03/04 00:04:24;;;;;;;0.52;0.52;;;2.90;99.90;;;;;;5033411;28;20485;-78
2023/03/04 00:06:57;;;;;;;0.00;0.00;;;2.80;99.90;;;;;;5029680;28;20059;-78
2023/03/04 00:09:25;;;;;;;0.00;0.00;;;2.90;99.90;;;;;;5023149;28;20021;-77
2023/03/04 00:11:53;;;;;;;0.10;0.10;;;2.80;99.90;;;;;;5026762;28;20022;-78
2023/03/04 00:14:21;;;;;;;0.00;0.00;;;2.70;99.90;;;;;;5035163;28;20065;-78
2023/03/04 00:16:50;;;;;;;0.00;0.00;;;2.60;99.90;;;;;;5027102;28;20114;-78
2023/03/04 00:19:17;;;;;;;0.00;0.00;;;2.70;99.90;;;;;;5033890;28;20016;-79
2023/03/04 00:21:58;;;;;;;0.00;0.00;;;2.60;99.90;;;;;;5026837;28;21064;-78
2023/03/04 00:24:24;;;;;;;0.00;0.00;;;2.50;99.90;;;;;;5027265;28;20025;-79
2023/03/04 00:26:51;;;;;;;0.00;0.00;;;2.50;99.90;;;;;;5031182;28;20039;-78
2023/03/04 00:29:20;;;;;;;0.28;0.28;;;2.50;99.90;;;;;;5033746;28;20021;-78
2023/03/04 00:32:02;;;;;;;1.20;0.65;;;2.50;99.90;;;;;;5036311;28;20367;-78
2023/03/04 00:34:30;;;;;;;0.00;0.00;;;2.40;99.90;;;;;;5028267;28;20108;-78
2023/03/04 00:37:00;;;;;;;0.00;0.00;;;2.40;99.90;;;;;;5027466;28;20278;-78
2023/03/04 00:39:36;;;;;;;2.00;0.55;;;2.40;99.90;;;;;;5028405;28;20021;-78
2023/03/04 00:42:04;;;;;;;0.00;0.00;;;2.40;99.90;;;;;;5023020;28;20018;-78
2023/03/04 00:44:30;;;;;;;7.88;0.90;;;2.30;99.90;;;;;;5025881;28;20033;-78
2023/03/04 00:46:56;;;;;;;0.00;0.00;;;2.70;99.90;;;;;;5032096;28;20117;-78
2023/03/04 00:49:22;;;;;;;0.00;0.00;;;2.40;99.90;;;;;;5031400;28;20064;-78
2023/03/04 00:51:51;;;;;;;0.33;0.33;;;2.40;99.90;;;;;;5030050;28;20056;-78
2023/03/04 00:54:20;;;;;;;0.08;0.08;;;2.30;99.90;;;;;;5031158;28;20029;-78
2023/03/04 00:56:47;;;;;;;0.30;0.30;;;2.30;99.90;;;;;;5032006;28;20044;-78
2023/03/04 00:59:20;;;;;;;0.50;0.35;;;2.30;99.90;;;;;;5027795;28;20496;-78
2023/03/04 01:01:46;;;;;;;0.00;0.00;;;2.20;99.90;;;;;;5028606;28;20960;-78
2023/03/04 01:04:12;;;;;;;1.13;1.08;;;2.30;99.90;;;;;;5030516;28;20717;-78
2023/03/04 01:06:38;;;;;;;0.20;0.20;;;2.30;99.90;;;;;;5027298;28;20053;-79
2023/03/04 01:09:07;;;;;;;0.00;0.00;;;2.20;99.90;;;;;;5030849;28;20025;-78
2023/03/04 01:11:40;;;;;;;0.00;0.00;;;2.20;99.90;;;;;;5023512;28;20498;-78
2023/03/04 01:14:06;;;;;;;0.00;0.00;;;2.20;99.90;;;;;;5026279;28;20041;-78
2023/03/04 01:16:33;;;;;;;0.00;0.00;;;2.20;99.90;;;;;;5026186;28;20706;-78
2023/03/04 01:19:01;;;;;;;0.00;0.00;;;2.20;99.90;;;;;;5029709;28;20070;-78
2023/03/04 01:21:27;;;;;;;0.03;0.03;;;2.20;99.90;;;;;;5026796;28;20083;-78
2023/03/04 01:24:01;;;;;;;0.20;0.20;;;2.20;99.90;;;;;;5033566;28;20060;-78
2023/03/04 01:26:28;;;;;;;0.22;0.13;;;2.20;99.90;;;;;;5030183;28;20044;-78
2023/03/04 01:28:58;;;;;;;0.00;0.00;;;2.20;99.90;;;;;;5035345;28;20028;-78
2023/03/04 01:31:28;;;;;;;0.00;0.00;;;2.30;99.90;;;;;;5028606;28;20562;-78
2023/03/04 01:33:55;;;;;;;0.98;0.98;;;2.30;99.90;;;;;;5037847;28;20040;-78
2023/03/04 01:36:20;;;;;;;0.00;0.00;;;2.20;99.90;;;;;;5031978;28;20100;-78
2023/03/04 01:38:46;;;;;;;0.00;0.00;;;2.20;99.90;;;;;;5026892;28;20092;-78
2023/03/04 01:41:12;;;;;;;0.00;0.00;;;2.20;99.90;;;;;;5029336;28;20069;-78
2023/03/04 01:43:39;;;;;;;0.20;0.20;;;2.20;99.90;;;;;;5034012;28;20017;-79
2023/03/04 01:46:11;;;;;;;0.00;0.00;;;2.10;99.90;;;;;;5038105;28;20017;-79
2023/03/04 01:48:38;;;;;;;0.00;0.00;;;2.20;99.90;;;;;;5034817;28;20028;-78
2023/03/04 01:51:24;;;;;;;0.00;0.00;;;2.10;99.90;;;;;;5039074;28;20013;-78
2023/03/04 01:53:56;;;;;;;0.00;0.00;;;2.10;99.90;;;;;;5031760;28;20087;-78
2023/03/04 01:56:35;;;;;;;0.63;0.28;;;2.20;99.90;;;;;;5035072;28;20167;-78
2023/03/04 01:59:25;;;;;;;0.98;0.40;;;2.20;99.90;;;;;;5024840;28;20025;-78
2023/03/04 02:01:57;;;;;;;0.00;0.00;;;2.30;99.90;;;;;;5027310;28;20751;-78
2023/03/04 02:04:31;;;;;;;0.03;0.03;;;2.30;99.90;;;;;;5029068;28;20033;-78
2023/03/04 02:06:58;;;;;;;0.00;0.00;;;2.30;99.90;;;;;;5030633;28;20033;-78
2023/03/04 02:09:25;;;;;;;0.00;0.00;;;2.40;99.90;;;;;;5030599;28;20024;-78
2023/03/04 02:11:56;;;;;;;0.00;0.00;;;2.40;99.90;;;;;;5031896;28;20107;-78
2023/03/04 02:14:22;;;;;;;0.10;0.10;;;2.40;99.90;;;;;;5031837;28;20395;-78
2023/03/04 02:16:49;;;;;;;0.00;0.00;;;2.40;99.90;;;;;;5032294;28;20250;-78
2023/03/04 02:20:08;;;;;;;0.00;0.00;;;2.30;99.90;;;;;;5032391;28;20026;-78
2023/03/04 02:22:41;;;;;;;0.30;0.30;;;2.40;99.90;;;;;;4984654;28;20022;-78
2023/03/04 02:25:21;;;;;;;0.00;0.00;;;2.40;99.90;;;;;;4991857;28;20121;-79
2023/03/04 02:27:49;;;;;;;0.47;0.43;;;2.30;99.90;;;;;;5019461;28;20699;-78
2023/03/04 02:30:21;;;;;;;0.00;0.00;;;2.30;99.90;;;;;;5037294;28;20030;-78
2023/03/04 02:32:48;;;;;;;0.00;0.00;;;2.20;99.90;;;;;;5032022;28;20028;-78
2023/03/04 02:35:23;;;;;;;0.00;0.00;;;2.20;99.90;;;;;;5025201;28;20029;-79
2023/03/04 02:37:50;;;;;;;0.10;0.10;;;2.20;99.90;;;;;;5033185;28;21614;-78
2023/03/04 02:40:29;;;;;;;0.00;0.00;;;2.20;99.90;;;;;;5033454;28;20033;-78
2023/03/04 02:43:01;;;;;;;0.00;0.00;;;2.20;99.90;;;;;;5027865;28;20022;-78
2023/03/04 02:45:42;;;;;;;0.00;0.00;;;2.20;99.90;;;;;;5031783;28;20382;-78
2023/03/04 02:48:13;;;;;;;0.20;0.20;;;2.20;99.90;;;;;;5027345;28;20816;-78
2023/03/04 02:50:48;;;;;;;0.00;0.00;;;2.20;99.90;;;;;;5033651;28;20033;-78
2023/03/04 02:53:15;;;;;;;0.00;0.00;;;2.20;99.90;;;;;;5026160;28;20040;-79
2023/03/04 02:55:53;;;;;;;0.00;0.00;;;2.20;99.90;;;;;;5041464;28;20032;-79
2023/03/04 02:58:25;;;;;;;0.00;0.00;;;2.20;99.90;;;;;;5030837;28;20030;-77
2023/03/04 03:00:51;;;;;;;0.00;0.00;;;2.30;99.90;;;;;;5024205;28;20021;-78
2023/03/04 03:03:17;;;;;;;0.00;0.00;;;2.70;99.90;;;;;;5040725;28;20024;-78
2023/03/04 03:05:48;;;;;;;0.00;0.00;;;2.40;99.90;;;;;;5034216;28;20029;-78
2023/03/04 03:08:16;;;;;;;0.00;0.00;;;2.40;99.90;;;;;;5030490;28;20038;-78
2023/03/04 03:10:41;;;;;;;0.00;0.00;;;2.40;99.90;;;;;;5032636;28;20024;-78
2023/03/04 03:13:08;;;;;;;0.00;0.00;;;2.50;99.90;;;;;;5031235;28;20074;-78
2023/03/04 03:15:41;;;;;;;0.00;0.00;;;2.60;99.90;;;;;;5025990;28;20087;-78
2023/03/04 03:18:10;;;;;;;0.00;0.00;;;2.70;99.90;;;;;;5030686;28;20032;-78
2023/03/04 03:20:37;;;;;;;0.00;0.00;;;2.80;99.90;;;;;;5028720;28;20024;-78
2023/03/04 03:23:03;;;;;;;0.20;0.20;;;2.90;99.90;;;;;;5023082;28;20022;-77
2023/03/04 03:25:30;;;;;;;0.00;0.00;;;3.10;99.90;;;;;;5029999;28;20116;-78
2023/03/04 03:27:56;;;;;;;0.00;0.00;;;3.20;99.90;;;;;;5030263;28;20037;-78
2023/03/04 03:30:27;;;;;;;0.00;0.00;;;3.40;99.90;;;;;;5030159;28;20078;-78
2023/03/04 03:32:57;;;;;;;0.00;0.00;;;3.60;99.90;;;;;;5029581;28;20631;-78
2023/03/04 03:35:24;;;;;;;0.00;0.00;;;3.80;99.90;;;;;;5039034;28;20031;-78
2023/03/04 03:37:52;;;;;;;0.00;0.00;;;3.90;99.90;;;;;;5033400;28;20021;-78
2023/03/04 03:40:18;;;;;;;0.00;0.00;;;4.00;99.90;;;;;;5032616;28;20076;-77
2023/03/04 03:42:43;;;;;;;0.63;0.57;;;3.90;99.90;;;;;;5026349;28;20025;-78
2023/03/04 03:45:11;;;;;;;0.00;0.00;;;4.10;99.90;;;;;;5029641;28;20446;-77
2023/03/04 03:47:54;;;;;;;0.00;0.00;;;4.10;99.90;;;;;;5028717;28;20087;-78
2023/03/04 03:50:21;;;;;;;0.00;0.00;;;4.10;99.90;;;;;;5029061;28;20032;-78
2023/03/04 03:52:51;;;;;;;;;;;4.30;99.90;;;;;;5024764;28;20059;-77
2023/03/04 03:55:18;;;;;;;0.00;0.00;;;4.30;99.90;;;;;;5033356;28;19916;-77
2023/03/04 03:57:44;;;;;;;0.17;0.03;;;4.30;99.90;;;;;;5029971;28;20029;-77
2023/03/04 04:00:30;;;;;;;0.00;0.00;;;4.40;99.90;;;;;;5034806;28;20755;-78
2023/03/04 04:02:58;;;;;;;0.00;0.00;;;4.30;99.90;;;;;;5023652;28;20021;-77
2023/03/04 04:05:26;;;;;;;0.10;0.10;;;4.40;99.90;;;;;;5032309;28;20021;-77
2023/03/04 04:08:06;;;;;;;0.00;0.00;;;4.40;99.90;;;;;;5028309;28;20107;-78
2023/03/04 04:10:41;;;;;;;0.15;0.15;;;4.30;99.90;;;;;;5033900;28;20025;-77
2023/03/04 04:13:18;;;;;;;0.00;0.00;;;4.30;99.90;;;;;;5030216;28;20025;-77
2023/03/04 04:15:45;;;;;;;0.00;0.00;;;4.40;99.90;;;;;;5025000;28;20522;-78
2023/03/04 04:18:10;;;;;;;0.00;0.00;;;4.40;99.90;;;;;;5025979;28;20026;-77
2023/03/04 04:20:36;;;;;;;0.00;0.00;;;4.40;99.90;;;;;;5023190;28;20048;-78
2023/03/04 04:23:03;;;;;;;0.00;0.00;;;4.50;99.90;;;;;;5031027;28;20389;-77
2023/03/04 04:25:35;;;;;;;0.00;0.00;;;4.60;99.90;;;;;;5032113;28;20017;-77
2023/03/04 04:28:05;;;;;;;0.00;0.00;;;4.70;99.90;;;;;;5029835;28;20037;-77
2023/03/04 04:30:34;;;;;;;0.00;0.00;;;4.70;99.90;;;;;;5028963;28;20045;-77
2023/03/04 04:33:08;;;;;;;0.10;0.10;;;4.80;99.90;;;;;;5028741;28;20032;-77
2023/03/04 04:35:37;;;;;;;0.00;0.00;;;4.80;99.90;;;;;;5025673;28;20049;-77
2023/03/04 04:38:03;;;;;;;0.00;0.00;;;4.80;99.90;;;;;;5024784;28;20374;-77
2023/03/04 04:40:30;;;;;;;0.32;0.32;;;4.80;99.90;;;;;;5028891;28;20386;-77
2023/03/04 04:42:58;;;;;;;0.00;0.00;;;4.90;99.90;;;;;;5026219;28;20021;-77
2023/03/04 04:45:49;;;;;;;0.10;0.10;;;5.40;99.90;;;;;;5029720;28;20024;-77
2023/03/04 04:48:16;;;;;;;0.00;0.00;;;4.90;99.90;;;;;;5023979;28;20029;-77
2023/03/04 04:50:56;;;;;;;0.00;0.00;;;4.90;99.90;;;;;;5024224;28;20088;-78
2023/03/04 04:53:25;;;;;;;0.00;0.00;;;4.90;99.90;;;;;;5026678;28;20383;-78
2023/03/04 04:55:51;;;;;;;0.00;0.00;;;5.00;99.90;;;;;;5034384;28;20896;-78
2023/03/04 04:58:20;;;;;;;0.00;0.00;;;5.00;99.90;;;;;;5026880;28;20429;-78
2023/03/04 05:00:47;;;;;;;0.00;0.00;;;5.10;99.90;;;;;;5034672;28;20090;-77
2023/03/04 05:03:14;;;;;;;0.00;0.00;;;5.10;99.90;;;;;;5035230;28;20047;-77
2023/03/04 05:05:45;;;;;;;0.00;0.00;;;5.00;99.90;;;;;;5034223;28;20059;-77
2023/03/04 05:08:12;;;;;;;0.00;0.00;;;5.00;99.90;;;;;;5036356;28;20037;-78
2023/03/04 05:10:46;;;;;;;0.00;0.00;;;4.90;99.90;;;;;;5038954;28;20758;-77
2023/03/04 05:13:15;;;;;;;0.00;0.00;;;5.00;99.90;;;;;;5037341;28;20710;-77
2023/03/04 05:15:41;;;;;;;0.00;0.00;;;4.90;99.90;;;;;;5036361;28;20937;-77
2023/03/04 05:18:10;;;;;;;0.00;0.00;;;4.80;99.90;;;;;;5030664;28;20029;-78
2023/03/04 05:20:35;;;;;;;0.00;0.00;;;5.00;99.90;;;;;;5027276;28;20028;-77
2023/03/04 05:23:01;;;;;;;0.00;0.00;;;5.00;99.90;;;;;;5041496;28;20013;-78
2023/03/04 05:25:29;;;;;;;0.97;0.63;;;5.10;99.90;;;;;;5045288;28;20021;-77
2023/03/04 05:28:00;;;;;;;0.13;0.13;;;5.00;99.90;;;;;;5040699;28;20020;-77
2023/03/04 05:30:26;;;;;;;0.47;0.47;;;5.00;99.90;;;;;;5031828;28;20025;-77
2023/03/04 05:32:52;;;;;;;0.00;0.00;;;5.00;99.90;;;;;;5038691;28;20017;-77
2023/03/04 05:35:21;;;;;;;2.50;0.63;;;5.00;99.90;;;;;;5040066;28;20040;-78
2023/03/04 05:37:49;;;;;;;0.00;0.00;;;5.40;99.90;;;;;;5036654;28;20048;-77
2023/03/04 05:40:24;;;;;;;0.00;0.00;;;5.10;99.90;;;;;;5038031;28;20013;-78
2023/03/04 05:42:50;;;;;;;0.00;0.00;;;5.20;99.90;;;;;;5025402;28;20053;-77
2023/03/04 05:45:17;;;;;;;0.00;0.00;;;5.30;99.90;;;;;;5036898;28;20064;-77
2023/03/04 05:47:49;;;;;;;0.10;0.10;;;5.30;99.90;;;;;;5030517;28;20030;-78
2023/03/04 05:50:22;;;;;;;0.20;0.20;;;5.50;99.90;;;;;;5031085;28;20086;-78
2023/03/04 05:52:49;;;;;;;0.00;0.00;;;5.70;99.90;;;;;;5035993;28;20108;-78
2023/03/04 05:55:17;;;;;;;0.00;0.00;;;5.80;99.90;;;;;;5033399;28;20029;-78
2023/03/04 05:57:48;;;;;;;0.00;0.00;;;6.00;99.90;;;;;;5028428;28;20048;-78
2023/03/04 06:00:16;;;;;;;0.00;0.00;;;6.20;99.90;;;;;;5037093;28;20025;-78
2023/03/04 06:02:51;;;;;;;0.10;0.10;;;6.40;99.90;;;;;;5034594;28;20052;-77
2023/03/04 06:05:23;;;;;;;0.00;0.00;;;6.80;99.90;;;;;;5033819;28;20021;-78
2023/03/04 06:07:52;;;;;;;0.00;0.00;;;7.20;99.90;;;;;;5032685;28;20510;-78
2023/03/04 06:10:21;;;;;;;0.00;0.00;;;7.70;99.90;;;;;;5030841;28;20064;-77
2023/03/04 06:12:49;;;;;;;0.00;0.00;;;8.10;99.90;;;;;;5028262;28;20729;-78
2023/03/04 06:15:18;;;;;;;0.30;0.30;;;8.30;99.90;;;;;;5026834;28;20424;-78
2023/03/04 06:17:44;;;;;;;0.00;0.00;;;8.30;99.90;;;;;;5024405;28;20052;-78
2023/03/04 06:20:11;;;;;;;0.00;0.00;;;8.10;99.90;;;;;;5033360;28;20068;-78
2023/03/04 06:22:38;;;;;;;0.00;0.00;;;7.60;99.90;;;;;;5032151;28;20017;-78
2023/03/04 06:25:04;;;;;;;0.55;0.20;;;7.40;99.90;;;;;;5034798;28;20469;-77
2023/03/04 06:27:32;;;;;;;1.35;0.93;;;7.30;99.90;;;;;;5031950;28;20029;-77
2023/03/04 06:30:05;;;;;;;0.20;0.17;;;7.40;99.90;;;;;;5028702;28;20692;-78
2023/03/04 06:32:30;;;;;;;0.10;0.10;;;7.80;99.90;;;;;;5025071;28;20071;-77
2023/03/04 06:35:02;;;;;;;0.00;0.00;;;8.20;99.90;;;;;;5028407;28;20318;-78
2023/03/04 06:37:28;;;;;;;0.00;0.00;;;8.40;99.90;;;;;;5032567;28;20260;-78
2023/03/04 06:39:56;;;;;;;0.43;0.43;;;8.90;99.90;;;;;;5030981;28;20021;-77
2023/03/04 06:42:21;;;;;;;0.05;0.05;;;9.60;99.90;;;;;;5027382;28;20052;-78
2023/03/04 06:44:48;;;;;;;0.00;0.00;;;10.40;99.90;;;;;;5025689;28;20025;-78
2023/03/04 06:47:33;;;;;;;0.00;0.00;;;11.50;99.90;;;;;;5028358;28;20501;-78
2023/03/04 06:50:02;;;;;;;0.00;0.00;;;12.90;99.00;;;;;;5034575;28;20029;-77
2023/03/04 06:52:28;;;;;;;0.00;0.00;;;13.60;95.80;;;;;;5028256;28;20051;-78
2023/03/04 06:54:54;;;;;;;0.00;0.00;;;14.70;92.20;;;;;;5030482;28;20017;-78
2023/03/04 06:57:19;;;;;;;0.00;0.00;;;15.20;88.00;;;;;;5027527;28;20033;-78
2023/03/04 06:59:48;;;;;;;0.00;0.00;;;15.20;86.20;;;;;;5037937;28;20079;-77
2023/03/04 07:02:15;;;;;;;0.00;0.00;;;16.00;80.90;;;;;;5034891;28;20116;-79
2023/03/04 07:04:40;;;;;;;0.20;0.03;;;16.70;76.70;;;;;;5029116;28;20379;-78
2023/03/04 07:07:10;;;;;;;0.00;0.00;;;17.60;72.20;;;;;;5029133;28;20526;-78
2023/03/04 07:09:38;;;;;;;0.88;0.52;;;17.80;68.50;;;;;;5033718;28;20264;-78
2023/03/04 07:12:04;;;;;;;0.00;0.00;;;18.30;66.10;;;;;;5031638;28;20028;-78
2023/03/04 07:14:37;;;;;;;0.20;0.20;;;18.50;64.10;;;;;;5029968;28;20029;-78
2023/03/04 07:17:03;;;;;;;0.00;0.00;;;18.10;63.70;;;;;;5033300;28;20107;-78
2023/03/04 07:19:29;;;;;;;0.32;0.15;;;17.80;63.50;;;;;;5030018;28;20108;-78
2023/03/04 07:21:56;;;;;;;0.00;0.00;;;18.00;63.80;;;;;;5029610;28;20056;-80
2023/03/04 07:24:23;;;;;;;0.90;0.38;;;18.60;62.50;;;;;;5025932;28;20083;-80
2023/03/04 07:26:51;;;;;;;0.40;0.15;;;19.30;60.80;;;;;;5023641;28;20761;-78
2023/03/04 07:29:17;;;;;;;0.20;0.20;;;19.10;59.90;;;;;;5030475;28;20029;-79
2023/03/04 07:31:45;;;;;;;0.10;0.10;;;20.00;58.60;;;;;;5027283;28;20030;-78
2023/03/04 07:34:13;;;;;;;0.20;0.20;;;20.40;57.00;;;;;;5031593;28;20039;-79
2023/03/04 07:36:40;;;;;;;0.03;0.03;;;20.90;55.30;;;;;;5034502;28;20084;-78
2023/03/04 07:39:06;;;;;;;;;;;21.00;54.30;;;;;;5027366;28;20021;-68
2023/03/04 07:41:35;;;;;;;0.00;0.00;;;21.10;55.20;;;;;;5026355;28;20403;-79
2023/03/04 07:44:02;;;;;;;0.98;0.20;;;21.40;53.60;;;;;;5028160;28;20025;-79
2023/03/04 07:46:28;;;;;;;0.68;0.68;;;22.00;52.40;;;;;;5028836;28;20075;-79
2023/03/04 07:48:56;;;;;;;0.63;0.55;;;22.40;51.20;;;;;;5027781;28;20033;-78
2023/03/04 07:51:24;;;;;;;0.32;0.32;;;22.40;50.50;;;;;;5028303;28;20128;-78
2023/03/04 07:53:59;;;;;;;0.30;0.30;;;22.70;50.30;;;;;;5026160;28;20873;-80
2023/03/04 07:56:28;;;;;;;0.60;0.60;;;23.60;49.10;;;;;;5026123;28;20024;-79
2023/03/04 07:58:56;;;;;;;0.05;0.05;;;23.70;48.30;;;;;;5025696;28;20017;-79
2023/03/04 08:01:29;;;;;;;0.20;0.20;;;23.50;48.50;;;;;;5030286;28;20021;-79
2023/03/04 08:03:58;;;;;;;0.60;0.32;;;23.90;48.00;;;;;;5022811;28;20029;-79
2023/03/04 08:06:26;;;;;;;0.25;0.10;;;23.80;47.20;;;;;;5026972;28;20029;-78
2023/03/04 08:08:57;;;;;;;0.00;0.00;;;23.80;47.10;;;;;;5021765;28;20030;-78
2023/03/04 08:11:23;;;;;;;0.10;0.10;;;24.60;46.50;;;;;;5027154;28;20559;-78
2023/03/04 08:13:54;;;;;;;0.32;0.32;;;24.80;45.90;;;;;;5033076;28;20029;-78
2023/03/04 08:16:23;;;;;;;0.00;0.00;;;25.10;45.90;;;;;;5025794;28;20106;-80
2023/03/04 08:18:58;;;;;;;0.15;0.15;;;25.20;45.40;;;;;;5023408;28;21515;-78
2023/03/04 08:21:27;;;;;;;0.20;0.20;;;24.90;45.20;;;;;;5025961;28;20025;-79
2023/03/04 08:23:53;;;;;;;0.55;0.55;;;24.90;45.00;;;;;;5035336;28;20553;-77
2023/03/04 08:26:32;;;;;;;0.30;0.30;;;25.30;44.20;;;;;;5028877;28;20028;-78
2023/03/04 08:29:04;;;;;;;0.05;0.05;;;25.90;44.40;;;;;;5023352;28;20057;-78
2023/03/04 08:31:30;;;;;;;0.52;0.30;;;26.10;43.80;;;;;;5019729;28;20103;-78
2023/03/04 08:34:02;;;;;;;1.55;0.70;;;26.50;43.40;;;;;;5022161;28;20033;-79
2023/03/04 08:36:29;;;;;;;0.30;0.30;;;26.20;42.70;;;;;;5018372;28;20064;-79
2023/03/04 08:38:56;;;;;;;0.00;0.00;;;26.10;42.70;;;;;;5022969;28;20021;-79
2023/03/04 08:41:24;;;;;;;0.15;0.15;;;25.90;42.80;;;;;;5028126;28;20013;-79
2023/03/04 08:43:50;;;;;;;0.00;0.00;;;26.10;43.00;;;;;;5028740;28;20025;-77
2023/03/04 08:46:21;;;;;;;1.38;0.98;;;26.40;42.70;;;;;;5024640;28;20032;-79
2023/03/04 08:48:56;;;;;;;0.90;0.52;;;26.70;42.40;;;;;;5024042;28;20028;-78
2023/03/04 08:51:24;;;;;;;0.22;0.22;;;26.60;41.80;;;;;;5027226;28;20067;-77
2023/03/04 08:53:51;;;;;;;0.80;0.80;;;25.30;42.10;;;;;;5022345;28;20068;-79
2023/03/04 08:56:29;;;;;;;0.80;0.63;;;25.20;42.60;;;;;;5022458;28;20445;-78
2023/03/04 08:58:57;;;;;;;0.00;0.00;;;25.70;42.30;;;;;;5022279;28;20022;-78
2023/03/04 09:01:32;;;;;;;1.38;0.30;;;26.00;41.50;;;;;;5026688;28;20021;-78
2023/03/04 09:04:01;;;;;;;2.30;0.20;;;26.40;41.10;;;;;;5019901;28;20017;-78
2023/03/04 09:06:35;;;;;;;0.00;0.00;;;26.70;40.20;;;;;;5023478;28;20107;-78
2023/03/04 09:09:02;;;;;;;0.00;0.00;;;27.40;39.80;;;;;;5020462;28;20409;-81
2023/03/04 09:11:30;;;;;;;0.45;0.30;;;27.80;38.90;;;;;;5023410;28;20085;-78
2023/03/04 09:13:57;;;;;;;0.00;0.00;;;27.30;38.10;;;;;;5027715;28;20037;-77
2023/03/04 09:16:31;;;;;;;0.65;0.65;;;27.90;38.60;;;;;;5028679;28;20033;-79
2023/03/04 09:18:59;;;;;;;0.88;0.20;;;28.90;37.80;;;;;;5020539;28;20065;-77
2023/03/04 09:21:26;;;;;;;0.25;0.10;;;28.70;37.40;;;;;;5019885;28;20018;-77
2023/03/04 09:23:52;;;;;;;0.00;0.00;;;29.10;36.80;;;;;;5022454;28;20083;-74
2023/03/04 09:26:23;;;;;;;1.98;0.88;;;29.30;37.50;;;;;;5020954;28;20402;-74
2023/03/04 09:28:58;;;;;;;0.00;0.00;;;28.60;36.70;;;;;;5025782;28;20029;-74
2023/03/04 09:31:25;;;;;;;2.47;0.20;;;29.50;36.50;;;;;;5019503;28;20097;-72
2023/03/04 09:33:52;;;;;;;0.03;0.03;;;29.40;36.60;;;;;;5017314;28;20056;-73
2023/03/04 09:36:19;;;;;;;0.00;0.00;;;29.70;35.80;;;;;;5024243;28;20022;-73
2023/03/04 09:38:45;;;;;;;0.25;0.20;;;29.50;34.70;;;;;;5031995;28;20533;-73
2023/03/04 09:41:38;;;;;;;0.00;0.00;;;29.40;34.70;;;;;;5025002;28;20547;-78
2023/03/04 09:44:27;;;;;;;0.00;0.00;;;29.20;33.70;;;;;;5023597;28;20024;-79
2023/03/04 09:47:09;;;;;;;0.30;0.30;;;29.40;34.30;;;;;;5029207;28;20017;-79
2023/03/04 09:49:39;;;;;;;0.25;0.25;;;29.10;33.40;;;;;;5030083;28;20013;-78
2023/03/04 09:52:36;;;;;;;0.03;0.03;;;28.30;33.50;;;;;;5029317;28;20131;-78
2023/03/04 09:55:15;;;;;;;0.22;0.22;;;27.60;33.80;;;;;;5032543;28;20506;-79
2023/03/04 09:58:03;;;;;;;0.73;0.40;;;27.80;33.60;;;;;;5029374;28;20043;-80
2023/03/04 10:00:39;;;;;;;0.00;0.00;;;28.00;33.30;;;;;;5030098;28;20047;-79
2023/03/04 10:03:10;;;;;;;0.00;0.00;;;29.00;33.80;;;;;;5027167;28;20013;-82
2023/03/04 10:06:09;;;;;;;0.00;0.00;;;29.30;33.00;;;;;;5023319;28;20096;-79
2023/03/04 10:08:43;;;;;;;0.15;0.15;;;29.10;33.20;;;;;;5024203;28;20029;-80
2023/03/04 10:11:49;;;;;;;0.00;0.00;;;29.80;33.20;;;;;;5034583;28;20036;-79
2023/03/04 10:14:21;;;;;;;0.00;0.00;;;30.00;32.90;;;;;;5029459;28;20021;-79
2023/03/04 10:17:11;;;;;;;0.05;0.00;;;29.70;32.30;;;;;;5027167;28;20120;-78
2023/03/04 10:19:56;;;;;;;0.00;0.00;;;30.30;32.70;;;;;;5023726;28;20022;-79
2023/03/04 10:22:45;;;;;;;0.00;0.00;;;30.20;32.00;;;;;;5028699;28;20467;-78
2023/03/04 10:25:29;;;;;;;0.00;0.00;;;29.20;32.70;;;;;;5023207;28;20025;-78
2023/03/04 10:28:01;;;;;;;2.38;0.35;;;29.10;32.40;;;;;;5028900;28;20025;-80
2023/03/04 10:30:51;;;;;;;0.00;0.00;;;29.50;32.30;;;;;;5024715;28;20032;-79
2023/03/04 10:33:22;;;;;;;0.00;0.00;;;29.70;32.30;;;;;;5023126;28;20013;-77
2023/03/04 10:36:00;;;;;;;0.00;0.00;;;29.90;31.90;;;;;;5031870;28;20056;-77
2023/03/04 10:38:33;;;;;;;0.00;0.00;;;30.10;32.20;;;;;;5025826;28;20017;-76
2023/03/04 10:41:20;;;;;;;0.00;0.00;;;29.90;32.30;;;;;;5026176;28;20021;-77
2023/03/04 10:44:07;;;;;;;0.15;0.10;;;29.30;32.50;;;;;;5031940;28;20017;-77
2023/03/04 10:46:38;;;;;;;0.40;0.40;;;28.80;32.80;;;;;;5027800;28;20021;-77
2023/03/04 10:49:04;;;;;;;0.00;0.00;;;28.40;32.80;;;;;;5028165;28;20022;-77
2023/03/04 10:51:53;;;;;;;0.00;0.00;;;28.40;33.40;;;;;;5025832;28;20073;-77
2023/03/04 10:54:40;;;;;;;0.57;0.10;;;28.80;33.50;;;;;;5024765;28;20029;-77
2023/03/04 10:57:25;;;;;;;0.20;0.20;;;28.50;33.20;;;;;;5018717;28;20100;-77
2023/03/04 10:59:59;;;;;;;0.10;0.10;;;28.00;33.80;;;;;;5028417;28;20116;-77
2023/03/04 11:02:35;;;;;;;0.00;0.00;;;26.90;34.10;;;;;;5031600;28;20517;-74
2023/03/04 11:05:06;;;;;;;0.08;0.08;;;27.20;36.80;;;;;;5024761;28;20034;-71
2023/03/04 11:07:38;;;;;;;0.00;0.00;;;27.80;35.80;;;;;;5023221;28;20101;-65
2023/03/04 11:10:10;;;;;;;0.08;0.08;;;27.40;35.00;;;;;;5025579;28;20041;-65
2023/03/04 11:12:36;;;;;;;0.00;0.00;;;25.70;35.30;;;;;;5022048;28;20036;-65
2023/03/04 11:15:03;;;;;;;10.80;0.45;;;23.00;37.30;;;;;;5021126;28;20363;-65
2023/03/04 11:17:44;;;;;;;0.10;0.10;;;20.80;39.40;;;;;;5024888;28;20025;-77
2023/03/04 11:20:30;;;;;;;0.00;0.00;;;19.40;41.00;;;;;;5022569;28;20018;-76
2023/03/04 11:23:00;;;;;;;0.00;0.00;;;18.20;42.30;;;;;;5023204;28;20017;-77
2023/03/04 11:25:32;;;;;;;0.15;0.08;;;17.30;43.10;;;;;;5025312;28;20021;-74
2023/03/04 11:28:04;;;;;;;0.28;0.28;;;17.10;45.20;;;;;;5022104;28;20070;-74
2023/03/04 11:30:56;;;;;;;0.00;0.00;;;16.90;47.80;;;;;;5026029;28;20710;-77
2023/03/04 11:33:42;;;;;;;0.00;0.00;;;16.60;45.80;;;;;;5022072;28;20067;-76
2023/03/04 11:36:17;;;;;;;0.00;0.00;;;16.00;46.20;;;;;;5023528;28;20021;-76
2023/03/04 11:38:50;;;;;;;0.00;0.00;;;15.60;46.80;;;;;;5027320;28;20789;-75
2023/03/04 11:41:32;;;;;;;0.00;0.00;;;15.40;47.20;;;;;;5028814;28;20055;-75
2023/03/04 11:44:05;;;;;;;0.00;0.00;;;15.20;47.40;;;;;;5030522;28;20037;-76
2023/03/04 11:46:55;;;;;;;0.00;0.00;;;15.20;47.70;;;;;;5023685;28;20021;-76
2023/03/04 11:49:47;;;;;;;0.00;0.00;;;15.00;47.30;;;;;;5018169;28;20038;-76
2023/03/04 11:52:40;;;;;;;0.38;0.20;;;15.10;47.70;;;;;;5024568;28;20187;-79
2023/03/04 11:55:28;;;;;;;0.00;0.00;;;14.90;48.60;;;;;;5029082;28;20734;-77
2023/03/04 11:58:04;;;;;;;0.00;0.00;;;15.10;48.60;;;;;;5028446;28;20021;-79
2023/03/04 12:00:35;;;;;;;0.00;0.00;;;15.30;49.40;;;;;;5035612;28;20035;-80
2023/03/04 12:03:39;;;;;;;0.00;0.00;;;15.60;49.50;;;;;;5018252;28;20048;-76
2023/03/04 12:06:14;;;;;;;0.45;0.45;;;15.60;47.60;;;;;;5021139;28;20025;-75
2023/03/04 12:08:55;;;;;;;0.00;0.00;;;15.90;49.00;;;;;;5017898;28;20040;-75
2023/03/04 12:11:27;;;;;;;0.32;0.32;;;15.90;48.10;;;;;;5020210;28;20784;-75
2023/03/04 12:14:14;;;;;;;0.00;0.00;;;16.00;47.50;;;;;;5026651;28;20018;-76
2023/03/04 12:16:50;;;;;;;0.00;0.00;;;15.80;47.40;;;;;;5027350;28;20041;-77
2023/03/04 12:19:19;;;;;;;0.00;0.00;;;15.80;47.70;;;;;;5021521;28;20038;-76
2023/03/04 12:22:00;;;;;;;0.22;0.22;;;15.60;48.30;;;;;;5022301;28;20033;-76
2023/03/04 12:24:44;;;;;;;0.00;0.00;;;15.40;48.00;;;;;;5029392;28;20025;-77
2023/03/04 12:27:27;;;;;;;0.03;0.03;;;15.20;46.90;;;;;;5028385;28;20092;-77
2023/03/04 12:30:04;;;;;;;0.00;0.00;;;15.10;47.00;;;;;;5022390;28;20501;-78
2023/03/04 12:32:51;;;;;;;0.00;0.00;;;14.80;46.40;;;;;;5018058;28;20624;-77
2023/03/04 12:35:27;;;;;;;0.00;0.00;;;14.60;47.00;;;;;;5027871;28;20131;-78
2023/03/04 12:38:12;;;;;;;0.00;0.00;;;14.70;47.30;;;;;;5032507;28;20482;-77
2023/03/04 12:40:53;;;;;;;0.00;0.00;;;14.80;47.50;;;;;;5022533;28;20040;-78
2023/03/04 12:43:23;;;;;;;0.00;0.00;;;14.50;47.90;;;;;;5029219;28;20029;-76
2023/03/04 12:46:14;;;;;;;0.00;0.00;;;14.20;47.90;;;;;;5036251;28;20040;-78
2023/03/04 12:49:21;;;;;;;0.45;0.45;;;14.00;48.90;;;;;;5021588;28;20115;-77
2023/03/04 12:51:57;;;;;;;0.40;0.40;;;14.10;49.50;;;;;;5024432;28;20788;-77
2023/03/04 12:54:33;;;;;;;0.10;0.05;;;14.20;49.10;;;;;;5020080;28;20087;-77
2023/03/04 12:57:21;;;;;;;0.00;0.00;;;14.30;49.30;;;;;;5019866;28;20014;-77
2023/03/04 13:00:03;;;;;;;0.28;0.22;;;14.50;49.20;;;;;;5020855;28;20025;-78
2023/03/04 13:02:48;;;;;;;0.45;0.10;;;14.50;48.80;;;;;;5017376;28;20060;-78
2023/03/04 13:05:26;;;;;;;0.00;0.00;;;14.60;49.10;;;;;;5020617;28;20037;-74
2023/03/04 13:07:58;;;;;;;0.00;0.00;;;14.60;52.00;;;;;;5019097;28;20057;-75
2023/03/04 13:10:24;;;;;;;0.00;0.00;;;14.70;52.60;;;;;;5025996;28;20514;-74
2023/03/04 13:12:55;;;;;;;0.00;0.00;;;14.80;52.20;;;;;;5030630;28;20025;-74
2023/03/04 13:15:20;;;;;;;0.10;0.10;;;14.90;52.00;;;;;;5020302;28;20037;-74
2023/03/04 13:18:30;;;;;;;0.00;0.00;;;14.90;52.70;;;;;;5023360;28;20024;-77
2023/03/04 13:21:10;;;;;;;0.00;0.00;;;14.60;51.20;;;;;;4975107;28;20640;-77